sensor_id;sensor_type;location;lat;lon;timestamp;P1;durP1;ratioP1;P2;durP2;ratioP2
3299;SDS011;1662;49.310;8.134;2023-04-12T00:00:24;4.13;;;2.93;;
3299;SDS011;1662;49.310;8.134;2023-04-12T00:02:50;4.00;;;2.70;;
3299;SDS011;1662;49.310;8.134;2023-04-12T00:05:19;3.10;;;2.77;;
3299;SDS011;1662;49.310;8.134;2023-04-12T00:07:47;2.60;;;2.40;;
3299;SDS011;1662;49.310;8.134;2023-04-12T00:10:13;3.77;;;2.90;;
3299;SDS011;1662;49.310;8.134;2023-04-12T00:12:40;3.37;;;2.50;;
3299;SDS011;1662;49.310;8.134;2023-04-12T00:15:05;3.63;;;2.60;;
3299;SDS011;1662;49.310;8.134;2023-04-12T00:17:32;2.93;;;2.50;;
3299;SDS011;1662;49.310;8.134;2023-04-12T00:19:57;5.30;;;3.13;;
3299;SDS011;1662;49.310;8.134;2023-04-12T00:22:23;6.20;;;2.90;;
3299;SDS011;1662;49.310;8.134;2023-04-12T00:24:50;3.10;;;2.87;;
3299;SDS011;1662;49.310;8.134;2023-04-12T00:27:16;3.33;;;3.00;;
3299;SDS011;1662;49.310;8.134;2023-04-12T00:29:43;6.43;;;2.50;;
3299;SDS011;1662;49.310;8.134;2023-04-12T00:32:09;6.77;;;2.00;;
3299;SDS011;1662;49.310;8.134;2023-04-12T00:34:34;2.30;;;2.10;;
3299;SDS011;1662;49.310;8.134;2023-04-12T00:37:00;4.27;;;2.60;;
3299;SDS011;1662;49.310;8.134;2023-04-12T00:39:26;2.97;;;2.13;;
3299;SDS011;1662;49.310;8.134;2023-04-12T00:41:51;2.87;;;2.67;;
3299;SDS011;1662;49.310;8.134;2023-04-12T00:44:17;3.13;;;2.47;;
3299;SDS011;1662;49.310;8.134;2023-04-12T00:46:47;3.67;;;2.30;;
3299;SDS011;1662;49.310;8.134;2023-04-12T00:49:13;5.43;;;2.60;;
3299;SDS011;1662;49.310;8.134;2023-04-12T00:51:39;2.30;;;2.10;;
3299;SDS011;1662;49.310;8.134;2023-04-12T00:54:05;3.13;;;2.43;;
3299;SDS011;1662;49.310;8.134;2023-04-12T00:56:33;2.47;;;2.27;;
3299;SDS011;1662;49.310;8.134;2023-04-12T00:59:00;3.23;;;2.30;;
3299;SDS011;1662;49.310;8.134;2023-04-12T01:01:26;2.73;;;2.30;;
3299;SDS011;1662;49.310;8.134;2023-04-12T01:03:52;6.90;;;2.40;;
3299;SDS011;1662;49.310;8.134;2023-04-12T01:17:27;7.90;;;2.50;;
3299;SDS011;1662;49.310;8.134;2023-04-12T01:20:05;3.20;;;2.10;;
3299;SDS011;1662;49.310;8.134;2023-04-12T01:28:22;3.03;;;2.07;;
3299;SDS011;1662;49.310;8.134;2023-04-12T01:31:02;3.67;;;2.80;;
3299;SDS011;1662;49.310;8.134;2023-04-12T01:33:31;3.13;;;2.13;;
3299;SDS011;1662;49.310;8.134;2023-04-12T01:35:59;4.20;;;2.20;;
3299;SDS011;1662;49.310;8.134;2023-04-12T01:38:28;4.77;;;2.77;;
3299;SDS011;1662;49.310;8.134;2023-04-12T01:40:54;4.17;;;3.00;;
3299;SDS011;1662;49.310;8.134;2023-04-12T01:43:20;4.40;;;3.90;;
3299;SDS011;1662;49.310;8.134;2023-04-12T01:45:46;4.40;;;2.90;;
3299;SDS011;1662;49.310;8.134;2023-04-12T01:48:12;7.10;;;2.70;;
3299;SDS011;1662;49.310;8.134;2023-04-12T01:50:49;2.57;;;2.37;;
3299;SDS011;1662;49.310;8.134;2023-04-12T01:55:51;3.00;;;2.70;;
3299;SDS011;1662;49.310;8.134;2023-04-12T01:58:23;2.63;;;2.40;;
3299;SDS011;1662;49.310;8.134;2023-04-12T02:00:49;3.20;;;2.90;;
3299;SDS011;1662;49.310;8.134;2023-04-12T02:03:17;2.93;;;2.73;;
3299;SDS011;1662;49.310;8.134;2023-04-12T02:05:48;2.60;;;2.40;;
3299;SDS011;1662;49.310;8.134;2023-04-12T02:08:15;3.80;;;2.70;;
3299;SDS011;1662;49.310;8.134;2023-04-12T02:10:41;3.23;;;2.40;;
3299;SDS011;1662;49.310;8.134;2023-04-12T02:13:09;2.97;;;2.77;;
3299;SDS011;1662;49.310;8.134;2023-04-12T02:15:36;3.20;;;3.00;;
3299;SDS011;1662;49.310;8.134;2023-04-12T02:18:04;2.80;;;2.53;;
3299;SDS011;1662;49.310;8.134;2023-04-12T02:20:30;4.93;;;3.53;;
3299;SDS011;1662;49.310;8.134;2023-04-12T02:22:56;6.17;;;3.17;;
3299;SDS011;1662;49.310;8.134;2023-04-12T02:25:22;4.53;;;4.00;;
3299;SDS011;1662;49.310;8.134;2023-04-12T02:27:47;4.17;;;2.60;;
3299;SDS011;1662;49.310;8.134;2023-04-12T02:30:13;5.43;;;3.77;;
3299;SDS011;1662;49.310;8.134;2023-04-12T02:32:39;7.37;;;3.43;;
3299;SDS011;1662;49.310;8.134;2023-04-12T02:35:11;6.37;;;3.40;;
3299;SDS011;1662;49.310;8.134;2023-04-12T02:37:41;7.10;;;3.83;;
3299;SDS011;1662;49.310;8.134;2023-04-12T02:40:12;5.50;;;3.63;;
3299;SDS011;1662;49.310;8.134;2023-04-12T02:42:42;5.83;;;3.90;;
3299;SDS011;1662;49.310;8.134;2023-04-12T02:45:09;4.30;;;3.50;;
3299;SDS011;1662;49.310;8.134;2023-04-12T02:47:38;3.80;;;2.80;;
3299;SDS011;1662;49.310;8.134;2023-04-12T02:50:05;3.43;;;3.13;;
3299;SDS011;1662;49.310;8.134;2023-04-12T02:52:31;4.53;;;3.43;;
3299;SDS011;1662;49.310;8.134;2023-04-12T02:54:57;5.03;;;3.23;;
3299;SDS011;1662;49.310;8.134;2023-04-12T02:57:23;5.17;;;3.40;;
3299;SDS011;1662;49.310;8.134;2023-04-12T02:59:52;3.00;;;2.80;;
3299;SDS011;1662;49.310;8.134;2023-04-12T03:02:20;8.70;;;3.80;;
3299;SDS011;1662;49.310;8.134;2023-04-12T03:04:47;6.60;;;3.43;;
3299;SDS011;1662;49.310;8.134;2023-04-12T03:07:17;5.60;;;3.83;;
3299;SDS011;1662;49.310;8.134;2023-04-12T03:09:48;7.50;;;4.70;;
3299;SDS011;1662;49.310;8.134;2023-04-12T03:12:14;7.43;;;4.27;;
3299;SDS011;1662;49.310;8.134;2023-04-12T03:14:42;4.67;;;4.00;;
3299;SDS011;1662;49.310;8.134;2023-04-12T03:19:53;7.07;;;4.20;;
3299;SDS011;1662;49.310;8.134;2023-04-12T03:22:19;4.60;;;4.20;;
3299;SDS011;1662;49.310;8.134;2023-04-12T03:24:45;4.40;;;4.07;;
3299;SDS011;1662;49.310;8.134;2023-04-12T03:27:10;6.57;;;3.73;;
3299;SDS011;1662;49.310;8.134;2023-04-12T03:29:36;4.63;;;4.30;;
3299;SDS011;1662;49.310;8.134;2023-04-12T03:32:02;7.57;;;4.00;;
3299;SDS011;1662;49.310;8.134;2023-04-12T03:34:27;4.60;;;4.10;;
3299;SDS011;1662;49.310;8.134;2023-04-12T03:36:59;4.70;;;4.30;;
3299;SDS011;1662;49.310;8.134;2023-04-12T03:39:26;6.00;;;4.53;;
3299;SDS011;1662;49.310;8.134;2023-04-12T03:41:51;6.13;;;4.90;;
3299;SDS011;1662;49.310;8.134;2023-04-12T03:44:17;9.17;;;5.70;;
3299;SDS011;1662;49.310;8.134;2023-04-12T03:46:43;6.07;;;5.20;;
3299;SDS011;1662;49.310;8.134;2023-04-12T03:49:09;9.37;;;6.40;;
3299;SDS011;1662;49.310;8.134;2023-04-12T03:51:36;6.47;;;5.97;;
3299;SDS011;1662;49.310;8.134;2023-04-12T03:54:07;8.80;;;6.50;;
3299;SDS011;1662;49.310;8.134;2023-04-12T03:56:33;7.20;;;6.27;;
3299;SDS011;1662;49.310;8.134;2023-04-12T03:58:59;13.40;;;8.97;;
3299;SDS011;1662;49.310;8.134;2023-04-12T04:01:24;10.93;;;7.30;;
3299;SDS011;1662;49.310;8.134;2023-04-12T04:03:50;7.50;;;6.67;;
3299;SDS011;1662;49.310;8.134;2023-04-12T04:06:16;8.10;;;6.10;;
3299;SDS011;1662;49.310;8.134;2023-04-12T04:08:42;15.40;;;6.63;;
3299;SDS011;1662;49.310;8.134;2023-04-12T04:11:09;11.20;;;7.03;;
3299;SDS011;1662;49.310;8.134;2023-04-12T04:13:36;8.13;;;6.63;;
3299;SDS011;1662;49.310;8.134;2023-04-12T04:16:05;11.70;;;7.23;;
3299;SDS011;1662;49.310;8.134;2023-04-12T04:18:31;8.97;;;6.53;;
3299;SDS011;1662;49.310;8.134;2023-04-12T04:20:59;7.00;;;6.10;;
3299;SDS011;1662;49.310;8.134;2023-04-12T04:23:25;7.83;;;6.50;;
3299;SDS011;1662;49.310;8.134;2023-04-12T04:25:53;10.03;;;7.60;;
3299;SDS011;1662;49.310;8.134;2023-04-12T04:28:19;8.43;;;7.10;;
3299;SDS011;1662;49.310;8.134;2023-04-12T04:30:44;8.50;;;7.60;;
3299;SDS011;1662;49.310;8.134;2023-04-12T04:33:10;9.80;;;7.43;;
3299;SDS011;1662;49.310;8.134;2023-04-12T04:35:40;13.83;;;7.67;;
3299;SDS011;1662;49.310;8.134;2023-04-12T04:38:09;10.87;;;8.27;;
3299;SDS011;1662;49.310;8.134;2023-04-12T04:40:37;8.20;;;7.50;;
3299;SDS011;1662;49.310;8.134;2023-04-12T04:43:03;8.00;;;7.20;;
3299;SDS011;1662;49.310;8.134;2023-04-12T04:45:31;8.43;;;6.13;;
3299;SDS011;1662;49.310;8.134;2023-04-12T04:47:56;6.97;;;6.30;;
3299;SDS011;1662;49.310;8.134;2023-04-12T04:50:23;8.37;;;6.40;;
3299;SDS011;1662;49.310;8.134;2023-04-12T04:52:50;8.03;;;6.30;;
3299;SDS011;1662;49.310;8.134;2023-04-12T04:55:16;8.83;;;6.13;;
3299;SDS011;1662;49.310;8.134;2023-04-12T04:57:42;8.90;;;6.53;;
3299;SDS011;1662;49.310;8.134;2023-04-12T05:00:08;9.37;;;5.83;;
3299;SDS011;1662;49.310;8.134;2023-04-12T05:02:38;5.70;;;5.10;;
3299;SDS011;1662;49.310;8.134;2023-04-12T05:05:07;6.33;;;5.73;;
3299;SDS011;1662;49.310;8.134;2023-04-12T05:07:40;5.87;;;5.13;;
3299;SDS011;1662;49.310;8.134;2023-04-12T05:10:07;6.53;;;5.90;;
3299;SDS011;1662;49.310;8.134;2023-04-12T05:12:34;7.10;;;6.20;;
3299;SDS011;1662;49.310;8.134;2023-04-12T05:15:03;4.30;;;3.50;;
3299;SDS011;1662;49.310;8.134;2023-04-12T05:17:29;4.93;;;4.57;;
3299;SDS011;1662;49.310;8.134;2023-04-12T05:19:54;5.77;;;5.27;;
3299;SDS011;1662;49.310;8.134;2023-04-12T05:22:20;6.00;;;4.90;;
3299;SDS011;1662;49.310;8.134;2023-04-12T05:24:49;5.40;;;5.00;;
3299;SDS011;1662;49.310;8.134;2023-04-12T05:27:15;8.40;;;6.47;;
3299;SDS011;1662;49.310;8.134;2023-04-12T05:29:44;6.27;;;5.77;;
3299;SDS011;1662;49.310;8.134;2023-04-12T05:32:11;6.97;;;6.27;;
3299;SDS011;1662;49.310;8.134;2023-04-12T05:34:36;11.07;;;7.40;;
3299;SDS011;1662;49.310;8.134;2023-04-12T05:37:02;5.63;;;5.13;;
3299;SDS011;1662;49.310;8.134;2023-04-12T05:39:28;7.47;;;6.77;;
3299;SDS011;1662;49.310;8.134;2023-04-12T05:41:55;7.00;;;6.17;;
3299;SDS011;1662;49.310;8.134;2023-04-12T05:44:23;6.33;;;5.73;;
3299;SDS011;1662;49.310;8.134;2023-04-12T05:46:49;5.10;;;4.60;;
3299;SDS011;1662;49.310;8.134;2023-04-12T05:49:15;4.63;;;4.23;;
3299;SDS011;1662;49.310;8.134;2023-04-12T05:51:40;6.03;;;5.43;;
3299;SDS011;1662;49.310;8.134;2023-04-12T05:54:06;9.60;;;5.70;;
3299;SDS011;1662;49.310;8.134;2023-04-12T05:56:32;6.33;;;5.83;;
3299;SDS011;1662;49.310;8.134;2023-04-12T05:59:00;6.37;;;5.83;;
3299;SDS011;1662;49.310;8.134;2023-04-12T06:01:26;6.87;;;5.73;;
3299;SDS011;1662;49.310;8.134;2023-04-12T06:03:57;7.70;;;4.97;;
3299;SDS011;1662;49.310;8.134;2023-04-12T06:06:23;6.93;;;5.70;;
3299;SDS011;1662;49.310;8.134;2023-04-12T06:08:48;5.43;;;4.93;;
3299;SDS011;1662;49.310;8.134;2023-04-12T06:11:15;7.00;;;5.50;;
3299;SDS011;1662;49.310;8.134;2023-04-12T06:13:40;5.80;;;5.27;;
3299;SDS011;1662;49.310;8.134;2023-04-12T06:16:06;6.33;;;5.33;;
3299;SDS011;1662;49.310;8.134;2023-04-12T06:18:32;6.67;;;5.60;;
3299;SDS011;1662;49.310;8.134;2023-04-12T06:20:58;6.97;;;6.13;;
3299;SDS011;1662;49.310;8.134;2023-04-12T06:23:24;7.10;;;5.90;;
3299;SDS011;1662;49.310;8.134;2023-04-12T06:25:50;9.70;;;7.10;;
3299;SDS011;1662;49.310;8.134;2023-04-12T06:28:17;6.90;;;6.33;;
3299;SDS011;1662;49.310;8.134;2023-04-12T06:30:42;12.87;;;11.13;;
3299;SDS011;1662;49.310;8.134;2023-04-12T06:33:11;8.73;;;7.27;;
3299;SDS011;1662;49.310;8.134;2023-04-12T06:35:39;8.00;;;7.40;;
3299;SDS011;1662;49.310;8.134;2023-04-12T06:38:05;8.33;;;6.70;;
3299;SDS011;1662;49.310;8.134;2023-04-12T06:40:31;9.80;;;7.30;;
3299;SDS011;1662;49.310;8.134;2023-04-12T06:42:56;8.90;;;7.50;;
3299;SDS011;1662;49.310;8.134;2023-04-12T06:45:22;8.50;;;6.93;;
3299;SDS011;1662;49.310;8.134;2023-04-12T06:47:48;7.97;;;7.17;;
3299;SDS011;1662;49.310;8.134;2023-04-12T06:50:13;13.60;;;8.20;;
3299;SDS011;1662;49.310;8.134;2023-04-12T06:52:39;9.80;;;7.60;;
3299;SDS011;1662;49.310;8.134;2023-04-12T06:55:05;7.10;;;6.50;;
3299;SDS011;1662;49.310;8.134;2023-04-12T06:57:31;6.90;;;6.40;;
3299;SDS011;1662;49.310;8.134;2023-04-12T06:59:59;8.87;;;7.10;;
3299;SDS011;1662;49.310;8.134;2023-04-12T07:02:26;7.77;;;7.07;;
3299;SDS011;1662;49.310;8.134;2023-04-12T07:04:52;7.03;;;6.33;;
3299;SDS011;1662;49.310;8.134;2023-04-12T07:07:20;7.77;;;6.80;;
3299;SDS011;1662;49.310;8.134;2023-04-12T07:09:46;7.93;;;6.90;;
3299;SDS011;1662;49.310;8.134;2023-04-12T07:12:11;7.63;;;6.03;;
3299;SDS011;1662;49.310;8.134;2023-04-12T07:14:37;8.20;;;5.60;;
3299;SDS011;1662;49.310;8.134;2023-04-12T07:17:03;6.40;;;5.80;;
3299;SDS011;1662;49.310;8.134;2023-04-12T07:19:29;5.57;;;5.10;;
3299;SDS011;1662;49.310;8.134;2023-04-12T07:21:58;5.60;;;4.97;;
3299;SDS011;1662;49.310;8.134;2023-04-12T07:24:24;5.67;;;4.57;;
3299;SDS011;1662;49.310;8.134;2023-04-12T07:26:53;6.13;;;5.23;;
3299;SDS011;1662;49.310;8.134;2023-04-12T07:29:19;6.40;;;4.70;;
3299;SDS011;1662;49.310;8.134;2023-04-12T07:31:44;6.90;;;4.80;;
3299;SDS011;1662;49.310;8.134;2023-04-12T07:34:10;5.70;;;4.90;;
3299;SDS011;1662;49.310;8.134;2023-04-12T07:36:36;5.90;;;5.40;;
3299;SDS011;1662;49.310;8.134;2023-04-12T07:39:02;5.50;;;5.03;;
3299;SDS011;1662;49.310;8.134;2023-04-12T07:41:28;5.50;;;4.80;;
3299;SDS011;1662;49.310;8.134;2023-04-12T07:43:53;5.30;;;4.90;;
3299;SDS011;1662;49.310;8.134;2023-04-12T07:46:21;5.00;;;4.37;;
3299;SDS011;1662;49.310;8.134;2023-04-12T07:48:47;5.47;;;4.97;;
3299;SDS011;1662;49.310;8.134;2023-04-12T07:51:12;7.83;;;5.47;;
3299;SDS011;1662;49.310;8.134;2023-04-12T07:53:38;5.70;;;5.10;;
3299;SDS011;1662;49.310;8.134;2023-04-12T07:56:05;5.80;;;4.90;;
3299;SDS011;1662;49.310;8.134;2023-04-12T07:58:32;6.53;;;5.93;;
3299;SDS011;1662;49.310;8.134;2023-04-12T08:00:57;5.70;;;5.30;;
3299;SDS011;1662;49.310;8.134;2023-04-12T08:03:23;5.77;;;5.37;;
3299;SDS011;1662;49.310;8.134;2023-04-12T08:05:49;6.13;;;5.63;;
3299;SDS011;1662;49.310;8.134;2023-04-12T08:08:17;7.13;;;5.47;;
3299;SDS011;1662;49.310;8.134;2023-04-12T08:10:45;6.40;;;5.73;;
3299;SDS011;1662;49.310;8.134;2023-04-12T08:13:11;6.50;;;5.90;;
3299;SDS011;1662;49.310;8.134;2023-04-12T08:15:36;6.00;;;5.37;;
3299;SDS011;1662;49.310;8.134;2023-04-12T08:18:02;7.93;;;6.57;;
3299;SDS011;1662;49.310;8.134;2023-04-12T08:20:28;6.73;;;6.07;;
3299;SDS011;1662;49.310;8.134;2023-04-12T08:22:54;6.43;;;5.93;;
3299;SDS011;1662;49.310;8.134;2023-04-12T08:25:20;5.20;;;4.70;;
3299;SDS011;1662;49.310;8.134;2023-04-12T08:27:47;5.60;;;5.20;;
3299;SDS011;1662;49.310;8.134;2023-04-12T08:30:13;6.30;;;5.10;;
3299;SDS011;1662;49.310;8.134;2023-04-12T08:32:39;6.00;;;5.47;;
3299;SDS011;1662;49.310;8.134;2023-04-12T08:35:05;6.00;;;5.50;;
3299;SDS011;1662;49.310;8.134;2023-04-12T08:37:32;5.73;;;5.30;;
3299;SDS011;1662;49.310;8.134;2023-04-12T08:39:58;5.13;;;4.63;;
3299;SDS011;1662;49.310;8.134;2023-04-12T08:42:26;4.13;;;3.93;;
3299;SDS011;1662;49.310;8.134;2023-04-12T08:44:52;9.60;;;5.50;;
3299;SDS011;1662;49.310;8.134;2023-04-12T08:47:17;5.47;;;5.00;;
3299;SDS011;1662;49.310;8.134;2023-04-12T08:49:45;6.90;;;5.87;;
3299;SDS011;1662;49.310;8.134;2023-04-12T08:52:10;5.27;;;4.87;;
3299;SDS011;1662;49.310;8.134;2023-04-12T08:54:36;6.03;;;5.33;;
3299;SDS011;1662;49.310;8.134;2023-04-12T08:57:06;6.50;;;5.50;;
3299;SDS011;1662;49.310;8.134;2023-04-12T08:59:35;5.60;;;5.03;;
3299;SDS011;1662;49.310;8.134;2023-04-12T09:02:02;6.80;;;5.27;;
3299;SDS011;1662;49.310;8.134;2023-04-12T09:04:28;9.13;;;5.10;;
3299;SDS011;1662;49.310;8.134;2023-04-12T09:06:53;5.03;;;4.50;;
3299;SDS011;1662;49.310;8.134;2023-04-12T09:09:38;4.67;;;4.27;;
3299;SDS011;1662;49.310;8.134;2023-04-12T09:12:05;7.23;;;5.00;;
3299;SDS011;1662;49.310;8.134;2023-04-12T09:14:32;5.70;;;4.87;;
3299;SDS011;1662;49.310;8.134;2023-04-12T09:16:57;5.40;;;5.00;;
3299;SDS011;1662;49.310;8.134;2023-04-12T09:19:30;5.33;;;4.30;;
3299;SDS011;1662;49.310;8.134;2023-04-12T09:21:56;5.70;;;5.00;;
3299;SDS011;1662;49.310;8.134;2023-04-12T09:24:22;6.30;;;4.63;;
3299;SDS011;1662;49.310;8.134;2023-04-12T09:27:01;5.07;;;4.30;;
3299;SDS011;1662;49.310;8.134;2023-04-12T09:29:31;5.90;;;4.43;;
3299;SDS011;1662;49.310;8.134;2023-04-12T09:34:28;4.60;;;4.20;;
3299;SDS011;1662;49.310;8.134;2023-04-12T09:36:54;5.70;;;4.50;;
3299;SDS011;1662;49.310;8.134;2023-04-12T09:39:30;6.03;;;4.57;;
3299;SDS011;1662;49.310;8.134;2023-04-12T09:42:11;5.67;;;4.73;;
3299;SDS011;1662;49.310;8.134;2023-04-12T09:44:39;5.63;;;5.13;;
3299;SDS011;1662;49.310;8.134;2023-04-12T09:47:05;6.37;;;4.87;;
3299;SDS011;1662;49.310;8.134;2023-04-12T09:49:34;5.10;;;4.43;;
3299;SDS011;1662;49.310;8.134;2023-04-12T09:52:08;5.10;;;4.70;;
3299;SDS011;1662;49.310;8.134;2023-04-12T09:54:45;5.80;;;5.30;;
3299;SDS011;1662;49.310;8.134;2023-04-12T09:57:16;6.83;;;5.33;;
3299;SDS011;1662;49.310;8.134;2023-04-12T09:59:43;5.07;;;4.67;;
3299;SDS011;1662;49.310;8.134;2023-04-12T10:02:15;6.67;;;5.47;;
3299;SDS011;1662;49.310;8.134;2023-04-12T10:04:43;6.37;;;5.27;;
3299;SDS011;1662;49.310;8.134;2023-04-12T10:07:10;5.60;;;5.17;;
3299;SDS011;1662;49.310;8.134;2023-04-12T10:09:36;6.47;;;5.57;;
3299;SDS011;1662;49.310;8.134;2023-04-12T10:12:03;8.10;;;5.87;;
3299;SDS011;1662;49.310;8.134;2023-04-12T10:14:29;5.20;;;4.70;;
3299;SDS011;1662;49.310;8.134;2023-04-12T10:16:56;5.67;;;5.17;;
3299;SDS011;1662;49.310;8.134;2023-04-12T10:19:27;6.43;;;4.97;;
3299;SDS011;1662;49.310;8.134;2023-04-12T10:21:56;6.03;;;5.43;;
3299;SDS011;1662;49.310;8.134;2023-04-12T10:24:22;6.03;;;5.43;;
3299;SDS011;1662;49.310;8.134;2023-04-12T10:26:50;5.00;;;4.60;;
3299;SDS011;1662;49.310;8.134;2023-04-12T10:29:30;6.03;;;5.43;;
3299;SDS011;1662;49.310;8.134;2023-04-12T10:32:17;5.23;;;4.57;;
3299;SDS011;1662;49.310;8.134;2023-04-12T10:34:48;6.07;;;4.90;;
3299;SDS011;1662;49.310;8.134;2023-04-12T10:37:20;5.20;;;4.70;;
3299;SDS011;1662;49.310;8.134;2023-04-12T10:40:06;6.33;;;5.17;;
3299;SDS011;1662;49.310;8.134;2023-04-12T10:42:43;5.43;;;5.03;;
3299;SDS011;1662;49.310;8.134;2023-04-12T10:45:42;6.70;;;5.07;;
3299;SDS011;1662;49.310;8.134;2023-04-12T10:48:00;6.50;;;5.10;;
3299;SDS011;1662;49.310;8.134;2023-04-12T10:50:28;6.50;;;5.30;;
3299;SDS011;1662;49.310;8.134;2023-04-12T10:55:36;5.53;;;5.07;;
3299;SDS011;1662;49.310;8.134;2023-04-12T10:58:07;5.03;;;4.63;;
3299;SDS011;1662;49.310;8.134;2023-04-12T11:03:26;5.40;;;4.97;;
3299;SDS011;1662;49.310;8.134;2023-04-12T11:06:05;5.17;;;4.67;;
3299;SDS011;1662;49.310;8.134;2023-04-12T11:08:31;5.03;;;4.63;;
3299;SDS011;1662;49.310;8.134;2023-04-12T11:11:03;5.00;;;4.70;;
3299;SDS011;1662;49.310;8.134;2023-04-12T11:13:41;5.87;;;4.33;;
3299;SDS011;1662;49.310;8.134;2023-04-12T11:16:07;5.03;;;4.53;;
3299;SDS011;1662;49.310;8.134;2023-04-12T11:18:36;5.20;;;4.80;;
3299;SDS011;1662;49.310;8.134;2023-04-12T11:21:03;5.10;;;4.80;;
3299;SDS011;1662;49.310;8.134;2023-04-12T11:23:30;7.80;;;5.00;;
3299;SDS011;1662;49.310;8.134;2023-04-12T11:25:56;5.60;;;5.20;;
3299;SDS011;1662;49.310;8.134;2023-04-12T11:28:22;5.90;;;5.30;;
3299;SDS011;1662;49.310;8.134;2023-04-12T11:30:56;4.60;;;4.30;;
3299;SDS011;1662;49.310;8.134;2023-04-12T11:33:35;5.70;;;5.20;;
3299;SDS011;1662;49.310;8.134;2023-04-12T11:36:03;5.90;;;4.73;;
3299;SDS011;1662;49.310;8.134;2023-04-12T11:38:36;6.50;;;5.13;;
3299;SDS011;1662;49.310;8.134;2023-04-12T11:41:02;5.63;;;5.10;;
3299;SDS011;1662;49.310;8.134;2023-04-12T11:43:31;6.83;;;6.23;;
3299;SDS011;1662;49.310;8.134;2023-04-12T11:46:02;7.50;;;5.27;;
3299;SDS011;1662;49.310;8.134;2023-04-12T11:48:28;10.13;;;4.87;;
3299;SDS011;1662;49.310;8.134;2023-04-12T11:50:54;5.00;;;4.60;;
3299;SDS011;1662;49.310;8.134;2023-04-12T11:53:26;4.57;;;4.23;;
3299;SDS011;1662;49.310;8.134;2023-04-12T11:55:54;4.33;;;3.93;;
3299;SDS011;1662;49.310;8.134;2023-04-12T11:58:26;6.20;;;5.60;;
3299;SDS011;1662;49.310;8.134;2023-04-12T12:00:52;4.60;;;4.20;;
3299;SDS011;1662;49.310;8.134;2023-04-12T12:03:20;5.37;;;4.30;;
3299;SDS011;1662;49.310;8.134;2023-04-12T12:05:46;4.53;;;4.20;;
3299;SDS011;1662;49.310;8.134;2023-04-12T12:08:12;4.57;;;3.60;;
3299;SDS011;1662;49.310;8.134;2023-04-12T12:10:38;4.10;;;3.70;;
3299;SDS011;1662;49.310;8.134;2023-04-12T12:13:08;2.67;;;2.53;;
3299;SDS011;1662;49.310;8.134;2023-04-12T12:15:38;2.80;;;2.60;;
3299;SDS011;1662;49.310;8.134;2023-04-12T12:18:08;2.77;;;2.57;;
3299;SDS011;1662;49.310;8.134;2023-04-12T12:21:07;2.77;;;2.50;;
3299;SDS011;1662;49.310;8.134;2023-04-12T12:23:34;2.20;;;2.10;;
3299;SDS011;1662;49.310;8.134;2023-04-12T12:26:00;2.20;;;1.97;;
3299;SDS011;1662;49.310;8.134;2023-04-12T12:28:36;2.20;;;2.00;;
3299;SDS011;1662;49.310;8.134;2023-04-12T12:31:05;2.17;;;2.07;;
3299;SDS011;1662;49.310;8.134;2023-04-12T12:33:40;2.43;;;2.10;;
3299;SDS011;1662;49.310;8.134;2023-04-12T12:36:06;2.83;;;2.63;;
3299;SDS011;1662;49.310;8.134;2023-04-12T12:38:36;2.50;;;2.23;;
3299;SDS011;1662;49.310;8.134;2023-04-12T12:41:13;2.93;;;2.73;;
3299;SDS011;1662;49.310;8.134;2023-04-12T12:43:42;3.43;;;3.13;;
3299;SDS011;1662;49.310;8.134;2023-04-12T12:46:12;3.27;;;3.00;;
3299;SDS011;1662;49.310;8.134;2023-04-12T12:48:42;3.53;;;3.33;;
3299;SDS011;1662;49.310;8.134;2023-04-12T12:51:08;3.70;;;3.50;;
3299;SDS011;1662;49.310;8.134;2023-04-12T12:53:35;6.17;;;5.03;;
3299;SDS011;1662;49.310;8.134;2023-04-12T12:56:02;7.13;;;4.50;;
3299;SDS011;1662;49.310;8.134;2023-04-12T12:58:28;9.73;;;4.90;;
3299;SDS011;1662;49.310;8.134;2023-04-12T13:00:54;4.17;;;3.97;;
3299;SDS011;1662;49.310;8.134;2023-04-12T13:03:20;3.67;;;2.93;;
3299;SDS011;1662;49.310;8.134;2023-04-12T13:05:46;4.07;;;3.27;;
3299;SDS011;1662;49.310;8.134;2023-04-12T13:08:13;2.93;;;2.77;;
3299;SDS011;1662;49.310;8.134;2023-04-12T13:10:39;2.53;;;2.10;;
3299;SDS011;1662;49.310;8.134;2023-04-12T13:13:05;2.53;;;2.33;;
3299;SDS011;1662;49.310;8.134;2023-04-12T13:15:31;3.13;;;2.40;;
3299;SDS011;1662;49.310;8.134;2023-04-12T13:17:56;2.40;;;2.30;;
3299;SDS011;1662;49.310;8.134;2023-04-12T13:20:22;2.43;;;2.23;;
3299;SDS011;1662;49.310;8.134;2023-04-12T13:22:48;4.53;;;2.00;;
3299;SDS011;1662;49.310;8.134;2023-04-12T13:25:15;2.93;;;1.50;;
3299;SDS011;1662;49.310;8.134;2023-04-12T13:27:40;1.40;;;1.40;;
3299;SDS011;1662;49.310;8.134;2023-04-12T13:30:06;1.80;;;1.20;;
3299;SDS011;1662;49.310;8.134;2023-04-12T13:32:32;1.20;;;1.10;;
3299;SDS011;1662;49.310;8.134;2023-04-12T13:34:58;2.20;;;1.37;;
3299;SDS011;1662;49.310;8.134;2023-04-12T13:37:23;1.40;;;1.40;;
3299;SDS011;1662;49.310;8.134;2023-04-12T13:39:50;1.30;;;1.30;;
3299;SDS011;1662;49.310;8.134;2023-04-12T13:42:16;3.03;;;1.30;;
3299;SDS011;1662;49.310;8.134;2023-04-12T13:44:42;1.40;;;1.30;;
3299;SDS011;1662;49.310;8.134;2023-04-12T13:47:07;1.20;;;1.20;;
3299;SDS011;1662;49.310;8.134;2023-04-12T13:49:36;1.50;;;1.40;;
3299;SDS011;1662;49.310;8.134;2023-04-12T13:52:01;1.10;;;1.10;;
3299;SDS011;1662;49.310;8.134;2023-04-12T13:54:27;1.33;;;1.23;;
3299;SDS011;1662;49.310;8.134;2023-04-12T13:56:55;1.47;;;1.37;;
3299;SDS011;1662;49.310;8.134;2023-04-12T13:59:22;1.00;;;1.00;;
3299;SDS011;1662;49.310;8.134;2023-04-12T14:01:47;0.80;;;0.80;;
3299;SDS011;1662;49.310;8.134;2023-04-12T14:04:13;1.00;;;1.00;;
3299;SDS011;1662;49.310;8.134;2023-04-12T14:06:38;1.13;;;0.90;;
3299;SDS011;1662;49.310;8.134;2023-04-12T14:09:04;1.33;;;1.03;;
3299;SDS011;1662;49.310;8.134;2023-04-12T14:11:30;0.90;;;0.90;;
3299;SDS011;1662;49.310;8.134;2023-04-12T14:14:09;0.90;;;0.80;;
3299;SDS011;1662;49.310;8.134;2023-04-12T14:16:35;1.00;;;1.00;;
3299;SDS011;1662;49.310;8.134;2023-04-12T14:19:00;0.80;;;0.80;;
3299;SDS011;1662;49.310;8.134;2023-04-12T14:21:26;2.10;;;1.30;;
3299;SDS011;1662;49.310;8.134;2023-04-12T14:23:53;1.30;;;1.30;;
3299;SDS011;1662;49.310;8.134;2023-04-12T14:26:19;0.90;;;0.90;;
3299;SDS011;1662;49.310;8.134;2023-04-12T14:28:44;0.90;;;0.90;;
3299;SDS011;1662;49.310;8.134;2023-04-12T14:31:13;1.53;;;1.10;;
3299;SDS011;1662;49.310;8.134;2023-04-12T14:33:42;0.90;;;0.90;;
3299;SDS011;1662;49.310;8.134;2023-04-12T14:36:08;1.17;;;1.17;;
3299;SDS011;1662;49.310;8.134;2023-04-12T14:38:33;2.13;;;1.10;;
3299;SDS011;1662;49.310;8.134;2023-04-12T14:40:59;0.90;;;0.90;;
3299;SDS011;1662;49.310;8.134;2023-04-12T14:43:26;1.17;;;1.17;;
3299;SDS011;1662;49.310;8.134;2023-04-12T14:45:51;0.80;;;0.80;;
3299;SDS011;1662;49.310;8.134;2023-04-12T14:48:19;0.90;;;0.90;;
3299;SDS011;1662;49.310;8.134;2023-04-12T14:50:45;6.00;;;0.90;;
3299;SDS011;1662;49.310;8.134;2023-04-12T14:53:11;0.90;;;0.90;;
3299;SDS011;1662;49.310;8.134;2023-04-12T14:55:38;1.63;;;1.20;;
3299;SDS011;1662;49.310;8.134;2023-04-12T14:58:04;0.80;;;0.80;;
3299;SDS011;1662;49.310;8.134;2023-04-12T15:00:31;2.40;;;1.10;;
3299;SDS011;1662;49.310;8.134;2023-04-12T15:02:57;1.17;;;1.17;;
3299;SDS011;1662;49.310;8.134;2023-04-12T15:05:24;0.90;;;0.90;;
3299;SDS011;1662;49.310;8.134;2023-04-12T15:07:51;0.90;;;0.90;;
3299;SDS011;1662;49.310;8.134;2023-04-12T15:10:18;1.00;;;1.00;;
3299;SDS011;1662;49.310;8.134;2023-04-12T15:12:44;1.10;;;1.10;;
3299;SDS011;1662;49.310;8.134;2023-04-12T15:15:10;1.00;;;1.00;;
3299;SDS011;1662;49.310;8.134;2023-04-12T15:17:36;0.80;;;0.80;;
3299;SDS011;1662;49.310;8.134;2023-04-12T15:20:04;1.77;;;1.00;;
3299;SDS011;1662;49.310;8.134;2023-04-12T15:22:36;1.00;;;1.00;;
3299;SDS011;1662;49.310;8.134;2023-04-12T15:25:03;1.60;;;1.07;;
3299;SDS011;1662;49.310;8.134;2023-04-12T15:27:29;1.10;;;0.90;;
3299;SDS011;1662;49.310;8.134;2023-04-12T15:29:58;0.90;;;0.90;;
3299;SDS011;1662;49.310;8.134;2023-04-12T15:32:27;0.90;;;0.90;;
3299;SDS011;1662;49.310;8.134;2023-04-12T15:34:53;1.20;;;1.00;;
3299;SDS011;1662;49.310;8.134;2023-04-12T15:37:23;1.00;;;1.00;;
3299;SDS011;1662;49.310;8.134;2023-04-12T15:39:50;0.90;;;0.90;;
3299;SDS011;1662;49.310;8.134;2023-04-12T15:42:17;0.90;;;0.90;;
3299;SDS011;1662;49.310;8.134;2023-04-12T15:44:43;0.90;;;0.90;;
3299;SDS011;1662;49.310;8.134;2023-04-12T15:47:10;0.90;;;0.90;;